McLean, VA (22067)

1:24 AM EDT on September 24, 2014 (GMT -0400)
APRSWXNET McLean VA US | Change Station
CLOSE
Current Station
Personal Weather Station
Location: McLean, VA
Elevation: 311 ft
Nearby Weather Stations

Elev 311 ft 38.95 °N, 77.17 °W | Updated 269 days ago

Partly Cloudy
Partly Cloudy
54 °F
Feels Like 54 °F
N
3
Wind Variable Wind from NNE
Gusts 5 mph

Today
High -- | Low -- °F
--% Chance of Precip.
Yesterday
High -- | Low -- °F
Precip. -- in
6:58 AM 7:02 PM
Waning Crescent, 0% visible
Pressure 30.40 in
Visibility 10.0 miles
Clouds Mostly Cloudy 13000 ft
Mostly Cloudy 25000 ft
Dew Point 50 °F
Humidity 87%
Rainfall 0.00 in
Snow Depth Not available.
UV 0 out of 12
Pollen 3.80 out of 12
Ozone Good
PM2.5 Good
Flu Activity Not available.
METAR KDCA 240452Z 05003KT 10SM BKN130 BKN250 17/10 A3041 RMK AO2 SLP295 T01670100 402390122

More Conditions Fewer Conditions

Pressure 30.40 in
Visibility 10.0 miles
Clouds Mostly Cloudy 13000 ft
Mostly Cloudy 25000 ft
Dew Point 50 °F
Humidity 87%
Rainfall 0.00 in
Snow Depth Not available.
UV 0 out of 12
Pollen 3.80 out of 12
Ozone Good
PM2.5 Good
Flu Activity Not available.
METAR KDCA 240452Z 05003KT 10SM BKN130 BKN250 17/10 A3041 RMK AO2 SLP295 T01670100 402390122

More Conditions Fewer Conditions

10-Day Weather Forecast

Almanac

Astronomy

Sep. 24, 2014 Rise Set
Actual Time 6:58 AM EDT 7:02 PM EDT
Civil Twilight 6:31 AM EDT 7:29 PM EDT
Nautical Twilight 6:00 AM EDT 8:00 PM EDT
Astronomical Twilight 5:28 AM EDT 8:31 PM EDT
Moon 7:16 AM EDT 7:12 PM EDT
Length of Visible Light 12h 57m
Length of Day
12h 04m
Tomorrow will be 2m 31s shorter.
Waning Crescent, 0% of the Moon is Illuminated
Today
Waning Crescent
Sep 24
New
Oct 1
First Quarter
Oct 8
Full
Oct 15
Last Quarter

Today's Extremes

State Highs State Lows

Community

WunderPhotos

Upload Photos

1,755,891 photos uploaded!

WunderBlogs® & News

Nearby

Air Quality

  Air Quality AQ Index Pollutant
Yesterday Good
PM10
Yesterday Good
OZONE
Current Good
PM2.5
Current Good
OZONE
Tuesday Good
PM2.5
Wednesday Good
PM2.5
Thursday Good
PM2.5
Friday Good
PM2.5

Snow Depth

Station Depth Elevation
No new snow has been reported.

Earthquake Activity

City Distance Mag. Time & Date
No recent earthquake activity has been reported nearby.
Minimum magnitude displayed is 2.5.

Coastal Water Temperatures

Place Temperature
Washington, DC 73.0 °F
Baltimore, MD 75.0 °F
Solomons Island, MD 73.9 °F

Nearby Weather Stations